createdAt,value
2022-08-07T00:02:41.180Z,21.11
2022-08-07T00:05:03.915Z,21.17
2022-08-07T00:07:40.303Z,21.06
2022-08-07T00:10:26.107Z,20.86
2022-08-07T00:12:59.853Z,20.94
2022-08-07T00:15:38.619Z,20.85
2022-08-07T00:18:19.257Z,20.84
2022-08-07T00:20:50.428Z,20.89
2022-08-07T00:23:21.344Z,20.81
2022-08-07T00:25:52.085Z,20.76
2022-08-07T00:28:33.254Z,20.87
2022-08-07T00:31:06.238Z,21.15
2022-08-07T00:33:37.061Z,21.33
2022-08-07T00:36:07.963Z,21.34
2022-08-07T00:38:39.093Z,21.30
2022-08-07T00:41:09.920Z,21.10
2022-08-07T00:43:58.998Z,21.28
2022-08-07T00:46:28.761Z,21.09
2022-08-07T00:48:57.385Z,20.87
2022-08-07T00:51:57.318Z,20.90
2022-08-07T00:54:20.822Z,20.86
2022-08-07T00:56:51.976Z,20.67
2022-08-07T00:59:35.253Z,20.54
2022-08-07T01:02:14.006Z,20.43
2022-08-07T01:04:58.297Z,20.43
2022-08-07T01:07:29.232Z,20.48
2022-08-07T01:10:06.300Z,20.59
2022-08-07T01:12:53.447Z,20.54
2022-08-07T01:16:00.619Z,20.43
2022-08-07T01:18:16.608Z,20.38
2022-08-07T01:20:57.404Z,20.30
2022-08-07T01:23:36.793Z,20.18
2022-08-07T01:26:14.421Z,20.18
2022-08-07T01:28:48.350Z,20.09
2022-08-07T01:31:22.927Z,20.06
2022-08-07T01:33:55.779Z,20.06
2022-08-07T01:36:33.355Z,20.19
2022-08-07T01:39:04.197Z,20.12
2022-08-07T01:41:54.996Z,20.05
2022-08-07T01:44:29.280Z,20.06
2022-08-07T01:47:01.174Z,20.11
2022-08-07T01:49:46.174Z,20.24
2022-08-07T01:52:25.480Z,20.30
2022-08-07T01:54:58.909Z,20.18
2022-08-07T01:57:34.017Z,20.07
2022-08-07T02:00:20.205Z,20.02
2022-08-07T02:03:18.835Z,20.03
2022-08-07T02:05:59.731Z,19.98
2022-08-07T02:08:30.649Z,19.91
2022-08-07T02:11:03.579Z,19.85
2022-08-07T02:13:56.698Z,19.88
2022-08-07T02:16:28.649Z,19.76
2022-08-07T02:20:07.591Z,19.83
2022-08-07T02:21:58.891Z,19.86
2022-08-07T02:24:30.269Z,19.88
2022-08-07T02:27:02.990Z,19.84
2022-08-07T02:29:31.661Z,19.73
2022-08-07T02:32:03.287Z,19.57
2022-08-07T02:34:33.938Z,19.51
2022-08-07T02:37:08.267Z,19.54
2022-08-07T02:40:02.256Z,19.57
2022-08-07T02:42:34.561Z,19.65
2022-08-07T02:46:00.814Z,19.67
2022-08-07T02:47:57.253Z,19.64
2022-08-07T02:50:30.769Z,19.62
2022-08-07T02:53:10.965Z,19.62
2022-08-07T02:56:03.472Z,19.49
2022-08-07T02:58:34.862Z,19.33
2022-08-07T03:01:05.372Z,19.14
2022-08-07T03:03:50.062Z,19.05
2022-08-07T03:06:25.844Z,18.98
2022-08-07T03:09:06.100Z,18.97
2022-08-07T03:11:38.822Z,19.07
2022-08-07T03:14:08.366Z,19.08
2022-08-07T03:16:38.372Z,18.92
2022-08-07T03:19:08.267Z,18.84
2022-08-07T03:21:37.209Z,18.83
2022-08-07T03:24:19.307Z,18.74
2022-08-07T03:26:58.323Z,18.63
2022-08-07T03:29:44.659Z,18.47
2022-08-07T03:32:22.781Z,18.52
2022-08-07T03:35:16.608Z,18.57
2022-08-07T03:37:55.255Z,18.50
2022-08-07T03:40:27.554Z,18.48
2022-08-07T03:43:01.257Z,18.37
2022-08-07T03:45:31.957Z,18.34
2022-08-07T03:48:01.401Z,18.40
2022-08-07T03:50:30.668Z,18.32
2022-08-07T03:53:01.394Z,18.06
2022-08-07T03:55:53.076Z,18.16
2022-08-07T03:59:05.300Z,18.25
2022-08-07T04:01:13.798Z,18.26
2022-08-07T04:03:53.936Z,18.23
2022-08-07T04:06:37.118Z,18.14
2022-08-07T04:09:15.236Z,18.12
2022-08-07T04:12:26.215Z,17.95
2022-08-07T04:14:43.810Z,17.86
2022-08-07T04:17:20.175Z,17.97
2022-08-07T04:19:54.871Z,18.03
2022-08-07T04:22:28.457Z,18.06
2022-08-07T04:25:02.076Z,18.03
2022-08-07T04:27:35.760Z,18.08
2022-08-07T04:30:35.420Z,18.10
2022-08-07T04:32:58.838Z,18.11
2022-08-07T04:35:28.648Z,18.14
2022-08-07T04:38:13.447Z,18.16
2022-08-07T04:40:52.680Z,18.11
2022-08-07T04:44:13.062Z,18.10
2022-08-07T04:47:04.958Z,18.04
2022-08-07T04:50:06.279Z,17.94
2022-08-07T04:53:40.193Z,17.99
2022-08-07T04:58:14.420Z,17.88
2022-08-07T05:00:14.616Z,17.82
2022-08-07T05:02:33.645Z,17.74
2022-08-07T05:05:51.541Z,17.71
2022-08-07T05:08:14.132Z,17.60
2022-08-07T05:10:48.851Z,17.53
2022-08-07T05:14:55.703Z,17.30
2022-08-07T05:16:22.954Z,17.13
2022-08-07T05:19:00.575Z,17.13
2022-08-07T05:21:59.365Z,17.13
2022-08-07T05:24:24.635Z,17.06
2022-08-07T05:27:01.446Z,17.01
2022-08-07T05:29:41.091Z,17.00
2022-08-07T05:32:26.172Z,16.97
2022-08-07T05:34:55.961Z,17.02
2022-08-07T05:37:25.718Z,17.03
2022-08-07T05:40:06.423Z,17.10
2022-08-07T05:42:56.355Z,17.01
2022-08-07T05:45:47.118Z,16.81
2022-08-07T05:48:16.607Z,16.81
2022-08-07T05:50:46.536Z,17.04
2022-08-07T05:54:12.564Z,17.00
2022-08-07T05:56:06.912Z,16.98
2022-08-07T05:58:39.229Z,17.04
2022-08-07T06:01:10.997Z,16.94
2022-08-07T06:03:53.488Z,16.72
2022-08-07T06:06:29.832Z,16.82
2022-08-07T06:09:04.567Z,16.90
2022-08-07T06:11:35.734Z,16.76
2022-08-07T06:14:12.684Z,16.70
2022-08-07T06:16:56.301Z,16.75
2022-08-07T06:19:52.070Z,16.60
2022-08-07T06:22:23.526Z,16.73
2022-08-07T06:24:58.445Z,16.70
2022-08-07T06:27:54.408Z,16.54
2022-08-07T06:30:32.478Z,16.56
2022-08-07T06:33:12.648Z,16.55
2022-08-07T06:36:06.227Z,16.59
2022-08-07T06:38:34.984Z,16.57
2022-08-07T06:41:09.608Z,16.58
2022-08-07T06:43:46.153Z,16.61
2022-08-07T06:46:20.458Z,16.65
2022-08-07T06:49:00.413Z,16.70
2022-08-07T06:51:34.250Z,16.75
2022-08-07T06:55:27.407Z,16.78
2022-08-07T06:56:57.352Z,16.78
2022-08-07T07:00:14.211Z,16.75
2022-08-07T07:02:48.656Z,16.75
2022-08-07T07:05:12.683Z,16.67
2022-08-07T07:07:59.336Z,16.70
2022-08-07T07:10:35.788Z,16.71
2022-08-07T07:13:41.647Z,16.76
2022-08-07T07:16:23.506Z,16.68
2022-08-07T07:19:40.930Z,16.64
2022-08-07T07:22:12.035Z,16.67
2022-08-07T07:25:03.126Z,16.62
2022-08-07T07:27:55.592Z,16.68
2022-08-07T07:30:40.121Z,16.65
2022-08-07T07:33:12.558Z,16.66
2022-08-07T07:35:54.678Z,16.64
2022-08-07T07:38:36.101Z,16.67
2022-08-07T07:41:08.546Z,16.69
2022-08-07T07:44:14.613Z,16.64
2022-08-07T07:46:38.577Z,16.67
2022-08-07T07:50:32.963Z,16.63
2022-08-07T07:52:15.902Z,16.60
2022-08-07T07:54:50.750Z,16.52
2022-08-07T07:57:43.660Z,16.57
2022-08-07T08:00:20.862Z,16.55
2022-08-07T08:04:05.955Z,16.62
2022-08-07T08:06:11.542Z,16.59
2022-08-07T08:08:43.132Z,16.58
2022-08-07T08:11:16.657Z,16.52
2022-08-07T08:13:53.867Z,16.49
2022-08-07T08:16:50.207Z,16.47
2022-08-07T08:20:17.569Z,16.51
2022-08-07T08:22:54.388Z,16.57
2022-08-07T08:25:49.227Z,16.57
2022-08-07T08:28:38.112Z,16.59
2022-08-07T08:31:16.019Z,16.58
2022-08-07T08:33:55.519Z,16.60
2022-08-07T08:36:30.054Z,16.55
2022-08-07T08:39:04.066Z,16.57
2022-08-07T08:42:01.351Z,16.63
2022-08-07T08:44:44.374Z,16.61
2022-08-07T08:47:47.308Z,16.57
2022-08-07T08:50:39.666Z,16.59
2022-08-07T08:53:40.428Z,16.64
2022-08-07T08:56:17.466Z,16.59
2022-08-07T08:59:06.423Z,16.59
2022-08-07T09:01:52.478Z,16.56
2022-08-07T09:04:51.492Z,16.54
2022-08-07T09:07:26.299Z,16.54
2022-08-07T09:10:08.962Z,16.54
2022-08-07T09:13:01.343Z,16.57
2022-08-07T09:16:20.586Z,16.53
2022-08-07T09:19:07.283Z,16.50
2022-08-07T09:24:29.214Z,16.35
2022-08-07T09:25:14.889Z,16.24
2022-08-07T09:30:06.178Z,16.33
2022-08-07T09:31:26.928Z,16.35
2022-08-07T09:34:41.724Z,16.10
2022-08-07T09:37:47.956Z,16.21
2022-08-07T09:40:18.345Z,16.33
2022-08-07T09:42:57.045Z,16.39
2022-08-07T09:47:24.304Z,16.36
2022-08-07T09:50:00.616Z,16.38
2022-08-07T09:52:34.228Z,16.34
2022-08-07T09:55:36.858Z,16.36
2022-08-07T09:58:48.829Z,16.20
2022-08-07T10:01:53.209Z,16.24
2022-08-07T10:04:52.792Z,16.23
2022-08-07T10:07:39.942Z,16.22
2022-08-07T10:14:23.113Z,16.17
2022-08-07T10:18:00.436Z,16.10
2022-08-07T10:20:34.318Z,16.15
2022-08-07T10:24:05.955Z,16.15
2022-08-07T10:26:34.153Z,16.11
2022-08-07T10:29:21.536Z,15.93
2022-08-07T10:32:36.804Z,15.94
2022-08-07T10:35:53.440Z,15.90
2022-08-07T10:38:46.427Z,15.89
2022-08-07T10:41:52.368Z,15.86
2022-08-07T10:44:38.686Z,15.91
2022-08-07T10:47:27.107Z,15.94
2022-08-07T10:50:31.210Z,15.94
2022-08-07T10:53:11.527Z,15.87
2022-08-07T10:56:21.016Z,15.90
2022-08-07T10:59:22.190Z,15.83
2022-08-07T11:02:05.110Z,15.80
2022-08-07T11:05:08.565Z,15.76
2022-08-07T11:07:58.582Z,15.68
2022-08-07T11:11:07.705Z,15.71
2022-08-07T11:14:44.240Z,15.71
2022-08-07T11:17:01.884Z,15.69
2022-08-07T11:19:39.012Z,15.56
2022-08-07T11:22:18.837Z,15.58
2022-08-07T11:25:06.511Z,15.55
2022-08-07T11:28:02.450Z,15.47
2022-08-07T11:30:44.751Z,15.40
2022-08-07T11:33:59.311Z,15.37
2022-08-07T11:36:44.985Z,15.32
2022-08-07T11:40:00.535Z,15.28
2022-08-07T11:43:09.019Z,15.24
2022-08-07T11:46:11.684Z,15.23
2022-08-07T11:49:50.112Z,15.12
2022-08-07T11:52:37.694Z,15.06
2022-08-07T11:56:25.484Z,15.04
2022-08-07T11:58:49.690Z,15.06
2022-08-07T12:01:59.756Z,15.01
2022-08-07T12:04:32.516Z,15.00
2022-08-07T12:07:09.059Z,14.97
2022-08-07T12:09:57.455Z,14.93
2022-08-07T12:12:45.390Z,14.93
2022-08-07T12:16:05.294Z,14.89
2022-08-07T12:18:46.224Z,14.87
2022-08-07T12:22:38.121Z,14.78
2022-08-07T12:26:23.083Z,14.79
2022-08-07T12:28:31.060Z,14.80
2022-08-07T12:31:10.981Z,14.77
2022-08-07T12:33:56.058Z,14.78
2022-08-07T12:36:32.764Z,14.77
2022-08-07T12:39:09.339Z,14.76
2022-08-07T12:41:56.743Z,14.82
2022-08-07T12:44:29.489Z,14.83
2022-08-07T12:47:21.752Z,14.86
2022-08-07T12:50:39.427Z,14.88
2022-08-07T12:53:27.505Z,14.93
2022-08-07T12:56:17.995Z,15.03
2022-08-07T12:58:53.150Z,15.06
2022-08-07T13:01:32.454Z,15.16
2022-08-07T13:04:34.536Z,15.17
2022-08-07T13:08:14.485Z,15.23
2022-08-07T13:10:39.575Z,15.25
2022-08-07T13:13:47.408Z,15.44
2022-08-07T13:16:50.721Z,15.56
2022-08-07T13:19:50.252Z,15.79
2022-08-07T13:22:33.427Z,15.93
2022-08-07T13:25:29.116Z,15.93
2022-08-07T13:28:18.455Z,16.01
2022-08-07T13:31:01.965Z,16.08
2022-08-07T13:34:31.338Z,16.16
2022-08-07T13:36:52.462Z,16.25
2022-08-07T13:40:34.047Z,16.41
2022-08-07T13:42:27.067Z,16.54
2022-08-07T13:45:20.916Z,16.57
2022-08-07T13:48:06.076Z,16.71
2022-08-07T13:50:44.794Z,16.84
2022-08-07T13:53:35.928Z,16.92
2022-08-07T13:56:35.624Z,17.03
2022-08-07T13:59:21.671Z,17.11
2022-08-07T14:02:04.069Z,17.13
2022-08-07T14:04:47.455Z,17.18
2022-08-07T14:07:23.084Z,17.14
2022-08-07T14:10:17.639Z,17.07
2022-08-07T14:13:09.203Z,17.04
2022-08-07T14:15:41.124Z,17.13
2022-08-07T14:18:30.734Z,17.28
2022-08-07T14:21:08.358Z,17.42
2022-08-07T14:24:10.981Z,17.73
2022-08-07T14:28:09.295Z,18.12
2022-08-07T14:30:11.125Z,18.44
2022-08-07T14:32:53.305Z,18.74
2022-08-07T14:35:45.665Z,18.99
2022-08-07T14:38:26.247Z,19.20
2022-08-07T14:41:14.976Z,19.29
2022-08-07T14:43:57.987Z,19.34
2022-08-07T14:46:37.393Z,19.37
2022-08-07T14:52:16.819Z,19.61
2022-08-07T14:54:46.833Z,19.64
2022-08-07T14:57:54.373Z,19.72
2022-08-07T15:00:20.491Z,19.85
2022-08-07T15:03:18.834Z,20.01
2022-08-07T15:05:54.335Z,20.24
2022-08-07T15:08:47.455Z,20.40
2022-08-07T15:11:54.153Z,20.43
2022-08-07T15:14:18.887Z,20.62
2022-08-07T15:16:54.482Z,20.32
2022-08-07T15:20:31.586Z,20.74
2022-08-07T15:22:23.076Z,20.75
2022-08-07T15:33:43.941Z,20.59
2022-08-07T15:36:14.353Z,20.61
2022-08-07T15:39:10.563Z,20.66
2022-08-07T15:44:53.200Z,20.84
2022-08-07T15:48:00.049Z,20.94
2022-08-07T15:50:37.725Z,21.02
2022-08-07T15:53:14.880Z,21.28
2022-08-07T15:56:02.724Z,21.33
2022-08-07T15:58:40.679Z,21.34
2022-08-07T16:01:38.452Z,21.46
2022-08-07T16:04:15.459Z,21.55
2022-08-07T16:06:54.723Z,21.61
2022-08-07T16:09:51.324Z,21.78
2022-08-07T16:12:39.148Z,22.13
2022-08-07T16:15:54.555Z,22.05
2022-08-07T16:18:53.748Z,22.22
2022-08-07T16:22:01.544Z,22.52
2022-08-07T16:25:04.809Z,22.86
2022-08-07T16:27:46.612Z,23.01
2022-08-07T16:30:31.485Z,23.06
2022-08-07T16:34:01.723Z,23.10
2022-08-07T16:36:19.771Z,23.32
2022-08-07T16:39:40.334Z,23.90
2022-08-07T16:42:46.703Z,24.58
2022-08-07T16:46:33.731Z,23.53
2022-08-07T16:48:58.430Z,23.74
2022-08-07T16:52:50.926Z,23.73
2022-08-07T16:55:28.807Z,24.26
2022-08-07T16:58:54.377Z,23.99
2022-08-07T17:01:21.143Z,23.87
2022-08-07T17:04:25.129Z,24.51
2022-08-07T17:06:57.995Z,24.71
2022-08-07T17:10:06.683Z,24.99
2022-08-07T17:12:45.442Z,25.53
2022-08-07T17:15:44.538Z,24.41
2022-08-07T17:18:51.308Z,24.56
2022-08-07T17:21:51.465Z,25.00
2022-08-07T17:24:48.754Z,25.48
2022-08-07T17:27:37.023Z,25.06
2022-08-07T17:30:20.487Z,24.89
2022-08-07T17:34:09.428Z,24.58
2022-08-07T17:36:20.378Z,24.53
2022-08-07T17:38:50.263Z,26.25
2022-08-07T17:42:04.913Z,26.26
2022-08-07T17:44:58.433Z,24.75
2022-08-07T17:47:53.941Z,26.73
2022-08-07T17:50:47.317Z,26.72
2022-08-07T17:54:00.795Z,26.82
2022-08-07T17:56:49.353Z,26.65
2022-08-07T17:59:27.140Z,26.28
2022-08-07T18:02:23.359Z,25.40
2022-08-07T18:05:20.828Z,26.26
2022-08-07T18:08:24.133Z,25.91
2022-08-07T18:11:53.934Z,25.29
2022-08-07T18:14:29.104Z,25.53
2022-08-07T18:18:39.714Z,26.91
2022-08-07T18:21:05.947Z,25.54
2022-08-07T18:23:21.851Z,25.36
2022-08-07T18:26:14.813Z,25.22
2022-08-07T18:28:58.199Z,25.15
2022-08-07T18:31:51.872Z,25.17
2022-08-07T18:35:01.134Z,25.76
2022-08-07T18:38:57.757Z,25.36
2022-08-07T18:40:53.483Z,25.33
2022-08-07T18:43:57.815Z,25.47
2022-08-07T18:47:00.012Z,25.49
2022-08-07T18:50:39.174Z,25.74
2022-08-07T18:53:16.458Z,25.65
2022-08-07T18:56:31.561Z,25.49
2022-08-07T18:59:46.765Z,25.80
2022-08-07T19:02:43.122Z,25.60
2022-08-07T19:06:04.028Z,25.99
2022-08-07T19:09:09.097Z,25.98
2022-08-07T19:12:05.776Z,25.66
2022-08-07T19:16:03.646Z,25.67
2022-08-07T19:18:33.999Z,25.98
2022-08-07T19:21:13.964Z,25.89
2022-08-07T19:24:02.026Z,25.66
2022-08-07T19:27:09.102Z,25.78
2022-08-07T19:30:55.426Z,25.58
2022-08-07T19:32:42.322Z,25.84
2022-08-07T19:35:22.564Z,25.37
2022-08-07T19:38:00.886Z,25.57
2022-08-07T19:40:38.181Z,26.02
2022-08-07T19:43:48.938Z,25.50
2022-08-07T19:46:15.746Z,25.54
2022-08-07T19:48:53.482Z,25.71
2022-08-07T19:51:52.323Z,25.81
2022-08-07T19:54:33.178Z,26.06
2022-08-07T19:58:01.974Z,25.94
2022-08-07T20:00:10.148Z,26.32
2022-08-07T20:02:52.001Z,26.18
2022-08-07T20:05:28.676Z,26.33
2022-08-07T20:08:06.695Z,26.72
2022-08-07T20:10:55.031Z,26.13
2022-08-07T20:13:46.472Z,26.04
2022-08-07T20:16:36.982Z,25.90
2022-08-07T20:19:09.969Z,26.05
2022-08-07T20:21:47.141Z,26.10
2022-08-07T20:24:35.630Z,25.73
2022-08-07T20:27:11.672Z,25.76
2022-08-07T20:29:56.743Z,25.75
2022-08-07T20:32:49.748Z,25.80
2022-08-07T20:35:27.099Z,25.52
2022-08-07T20:38:00.866Z,25.82
2022-08-07T20:40:34.898Z,25.74
2022-08-07T20:43:14.507Z,26.06
2022-08-07T20:46:29.107Z,25.90
2022-08-07T20:48:58.178Z,25.96
2022-08-07T20:51:40.572Z,25.96
2022-08-07T20:54:30.272Z,25.90
2022-08-07T20:57:10.397Z,26.12
2022-08-07T21:00:05.675Z,25.90
2022-08-07T21:02:53.836Z,25.82
2022-08-07T21:05:42.963Z,26.20
2022-08-07T21:08:20.717Z,26.12
2022-08-07T21:11:10.468Z,26.13
2022-08-07T21:13:43.700Z,26.01
2022-08-07T21:16:31.857Z,25.93
2022-08-07T21:19:01.655Z,26.10
2022-08-07T21:21:49.314Z,26.54
2022-08-07T21:24:48.016Z,26.27
2022-08-07T21:27:40.157Z,26.30
2022-08-07T21:30:19.125Z,26.61
2022-08-07T21:32:53.586Z,26.43
2022-08-07T21:36:06.595Z,26.56
2022-08-07T21:38:50.364Z,26.70
2022-08-07T21:41:38.427Z,26.64
2022-08-07T21:44:25.382Z,26.49
2022-08-07T21:47:17.378Z,26.41
2022-08-07T21:50:05.035Z,26.55
2022-08-07T21:52:49.550Z,26.42
2022-08-07T21:55:30.158Z,26.83
2022-08-07T21:58:32.810Z,26.92
2022-08-07T22:01:14.479Z,26.52
2022-08-07T22:03:56.382Z,26.71
2022-08-07T22:06:34.847Z,26.47
2022-08-07T22:09:12.797Z,26.54
2022-08-07T22:12:05.685Z,26.51
2022-08-07T22:14:59.737Z,26.53
2022-08-07T22:17:38.028Z,26.49
2022-08-07T22:20:36.180Z,26.59
2022-08-07T22:23:42.306Z,26.78
2022-08-07T22:26:22.705Z,26.77
2022-08-07T22:29:33.911Z,26.86
2022-08-07T22:32:23.361Z,26.89
2022-08-07T22:35:02.962Z,26.42
2022-08-07T22:38:01.803Z,26.40
2022-08-07T22:40:52.376Z,26.67
2022-08-07T22:43:38.399Z,26.59
2022-08-07T22:47:02.266Z,26.53
2022-08-07T22:49:54.077Z,26.59
2022-08-07T22:52:57.710Z,26.74
2022-08-07T22:56:08.579Z,26.80
2022-08-07T22:59:14.355Z,26.40
2022-08-07T23:02:27.487Z,26.81
2022-08-07T23:06:08.527Z,26.63
2022-08-07T23:08:23.870Z,26.69
2022-08-07T23:11:41.304Z,26.59
2022-08-07T23:14:30.518Z,26.54
2022-08-07T23:17:20.999Z,26.62
2022-08-07T23:20:51.419Z,26.62
2022-08-07T23:24:06.156Z,26.58
2022-08-07T23:26:28.728Z,26.67
2022-08-07T23:29:42.627Z,26.84
2022-08-07T23:34:19.444Z,26.70
2022-08-07T23:35:37.601Z,26.66
2022-08-07T23:38:19.435Z,26.64
2022-08-07T23:41:14.597Z,26.75
2022-08-07T23:44:05.364Z,26.81
2022-08-07T23:46:52.810Z,26.67
2022-08-07T23:49:54.887Z,26.54
2022-08-07T23:53:08.780Z,26.67
2022-08-07T23:55:55.467Z,26.77
